sensor_id;sensor_type;location;lat;lon;timestamp;temperature;humidity
51007;DHT22;37034;47.886;-3.904;2023-07-20T00:01:30;19.90;80.80
51007;DHT22;37034;47.886;-3.904;2023-07-20T00:03:56;20.00;81.00
51007;DHT22;37034;47.886;-3.904;2023-07-20T00:06:22;19.90;80.90
51007;DHT22;37034;47.886;-3.904;2023-07-20T00:08:49;19.90;81.00
51007;DHT22;37034;47.886;-3.904;2023-07-20T00:11:14;19.90;81.20
51007;DHT22;37034;47.886;-3.904;2023-07-20T00:13:40;19.80;81.30
51007;DHT22;37034;47.886;-3.904;2023-07-20T00:16:06;19.70;81.30
51007;DHT22;37034;47.886;-3.904;2023-07-20T00:18:32;19.70;81.50
51007;DHT22;37034;47.886;-3.904;2023-07-20T00:20:57;19.60;81.60
51007;DHT22;37034;47.886;-3.904;2023-07-20T00:23:25;19.60;81.70
51007;DHT22;37034;47.886;-3.904;2023-07-20T00:25:52;19.60;81.80
51007;DHT22;37034;47.886;-3.904;2023-07-20T00:28:17;19.60;81.80
51007;DHT22;37034;47.886;-3.904;2023-07-20T00:30:43;19.60;81.90
51007;DHT22;37034;47.886;-3.904;2023-07-20T00:33:12;19.60;82.00
51007;DHT22;37034;47.886;-3.904;2023-07-20T00:35:38;19.50;82.10
51007;DHT22;37034;47.886;-3.904;2023-07-20T00:38:04;19.50;82.00
51007;DHT22;37034;47.886;-3.904;2023-07-20T00:40:40;19.60;83.30
51007;DHT22;37034;47.886;-3.904;2023-07-20T00:43:07;19.60;82.40
51007;DHT22;37034;47.886;-3.904;2023-07-20T00:45:34;19.60;82.20
51007;DHT22;37034;47.886;-3.904;2023-07-20T00:48:01;19.60;82.20
51007;DHT22;37034;47.886;-3.904;2023-07-20T00:50:28;19.60;82.20
51007;DHT22;37034;47.886;-3.904;2023-07-20T00:52:55;19.60;82.30
51007;DHT22;37034;47.886;-3.904;2023-07-20T00:55:23;19.70;82.30
51007;DHT22;37034;47.886;-3.904;2023-07-20T00:57:49;19.60;82.20
51007;DHT22;37034;47.886;-3.904;2023-07-20T01:00:16;19.60;82.10
51007;DHT22;37034;47.886;-3.904;2023-07-20T01:02:41;19.70;82.20
51007;DHT22;37034;47.886;-3.904;2023-07-20T01:05:08;19.60;82.10
51007;DHT22;37034;47.886;-3.904;2023-07-20T01:07:40;19.60;82.20
51007;DHT22;37034;47.886;-3.904;2023-07-20T01:10:33;19.60;82.20
51007;DHT22;37034;47.886;-3.904;2023-07-20T01:13:02;19.50;82.60
51007;DHT22;37034;47.886;-3.904;2023-07-20T01:15:28;19.50;82.20
51007;DHT22;37034;47.886;-3.904;2023-07-20T01:17:54;19.50;82.40
51007;DHT22;37034;47.886;-3.904;2023-07-20T01:20:21;19.50;82.50
51007;DHT22;37034;47.886;-3.904;2023-07-20T01:25:58;19.40;83.10
51007;DHT22;37034;47.886;-3.904;2023-07-20T01:28:44;19.40;82.80
51007;DHT22;37034;47.886;-3.904;2023-07-20T01:33:46;19.40;82.90
51007;DHT22;37034;47.886;-3.904;2023-07-20T01:36:14;19.40;82.80
51007;DHT22;37034;47.886;-3.904;2023-07-20T01:38:40;19.40;82.80
51007;DHT22;37034;47.886;-3.904;2023-07-20T01:41:07;19.40;82.80
51007;DHT22;37034;47.886;-3.904;2023-07-20T01:43:34;19.40;82.90
51007;DHT22;37034;47.886;-3.904;2023-07-20T01:45:59;19.30;82.60
51007;DHT22;37034;47.886;-3.904;2023-07-20T01:48:25;19.30;82.80
51007;DHT22;37034;47.886;-3.904;2023-07-20T01:50:51;19.20;82.70
51007;DHT22;37034;47.886;-3.904;2023-07-20T01:53:17;19.20;83.10
51007;DHT22;37034;47.886;-3.904;2023-07-20T01:55:42;19.20;83.30
51007;DHT22;37034;47.886;-3.904;2023-07-20T01:58:08;19.20;83.30
51007;DHT22;37034;47.886;-3.904;2023-07-20T02:00:36;19.20;83.50
51007;DHT22;37034;47.886;-3.904;2023-07-20T02:03:02;19.20;83.60
51007;DHT22;37034;47.886;-3.904;2023-07-20T02:05:27;19.20;83.50
51007;DHT22;37034;47.886;-3.904;2023-07-20T02:07:53;19.20;83.60
51007;DHT22;37034;47.886;-3.904;2023-07-20T02:10:19;19.20;83.70
51007;DHT22;37034;47.886;-3.904;2023-07-20T02:12:44;19.10;83.70
51007;DHT22;37034;47.886;-3.904;2023-07-20T02:15:10;19.10;83.80
51007;DHT22;37034;47.886;-3.904;2023-07-20T02:17:36;19.10;83.90
51007;DHT22;37034;47.886;-3.904;2023-07-20T02:20:02;19.10;84.10
51007;DHT22;37034;47.886;-3.904;2023-07-20T02:22:28;19.10;84.20
51007;DHT22;37034;47.886;-3.904;2023-07-20T02:24:54;19.10;84.50
51007;DHT22;37034;47.886;-3.904;2023-07-20T02:27:19;19.10;84.40
51007;DHT22;37034;47.886;-3.904;2023-07-20T02:29:45;19.10;84.40
51007;DHT22;37034;47.886;-3.904;2023-07-20T02:32:11;19.00;84.50
51007;DHT22;37034;47.886;-3.904;2023-07-20T02:34:36;19.00;84.50
51007;DHT22;37034;47.886;-3.904;2023-07-20T02:37:02;19.10;84.70
51007;DHT22;37034;47.886;-3.904;2023-07-20T02:39:28;19.10;84.80
51007;DHT22;37034;47.886;-3.904;2023-07-20T02:41:54;19.10;84.80
51007;DHT22;37034;47.886;-3.904;2023-07-20T02:44:20;19.00;84.90
51007;DHT22;37034;47.886;-3.904;2023-07-20T02:46:45;19.00;84.80
51007;DHT22;37034;47.886;-3.904;2023-07-20T02:49:11;19.10;85.10
51007;DHT22;37034;47.886;-3.904;2023-07-20T02:51:36;19.00;85.10
51007;DHT22;37034;47.886;-3.904;2023-07-20T02:54:02;19.00;85.10
51007;DHT22;37034;47.886;-3.904;2023-07-20T02:56:29;19.00;85.40
51007;DHT22;37034;47.886;-3.904;2023-07-20T02:58:54;19.10;85.40
51007;DHT22;37034;47.886;-3.904;2023-07-20T03:01:20;19.10;85.40
51007;DHT22;37034;47.886;-3.904;2023-07-20T03:03:46;19.10;85.40
51007;DHT22;37034;47.886;-3.904;2023-07-20T03:06:16;19.10;85.30
51007;DHT22;37034;47.886;-3.904;2023-07-20T03:08:42;19.10;85.40
51007;DHT22;37034;47.886;-3.904;2023-07-20T03:11:10;19.10;85.20
51007;DHT22;37034;47.886;-3.904;2023-07-20T03:13:36;19.10;85.50
51007;DHT22;37034;47.886;-3.904;2023-07-20T03:16:02;19.10;85.60
51007;DHT22;37034;47.886;-3.904;2023-07-20T03:18:27;19.10;85.50
51007;DHT22;37034;47.886;-3.904;2023-07-20T03:20:53;19.10;85.70
51007;DHT22;37034;47.886;-3.904;2023-07-20T03:23:19;19.10;85.70
51007;DHT22;37034;47.886;-3.904;2023-07-20T03:25:44;19.00;85.70
51007;DHT22;37034;47.886;-3.904;2023-07-20T03:28:10;19.00;85.60
51007;DHT22;37034;47.886;-3.904;2023-07-20T03:30:35;19.00;85.70
51007;DHT22;37034;47.886;-3.904;2023-07-20T03:33:01;19.00;85.70
51007;DHT22;37034;47.886;-3.904;2023-07-20T03:35:28;19.00;85.70
51007;DHT22;37034;47.886;-3.904;2023-07-20T03:37:54;19.00;85.80
51007;DHT22;37034;47.886;-3.904;2023-07-20T03:40:19;19.00;86.00
51007;DHT22;37034;47.886;-3.904;2023-07-20T03:42:45;19.00;86.00
51007;DHT22;37034;47.886;-3.904;2023-07-20T03:45:11;18.90;86.10
51007;DHT22;37034;47.886;-3.904;2023-07-20T03:47:36;18.90;86.30
51007;DHT22;37034;47.886;-3.904;2023-07-20T03:50:02;18.90;86.30
51007;DHT22;37034;47.886;-3.904;2023-07-20T03:52:28;18.90;86.50
51007;DHT22;37034;47.886;-3.904;2023-07-20T03:54:54;18.90;86.50
51007;DHT22;37034;47.886;-3.904;2023-07-20T03:57:20;18.90;86.60
51007;DHT22;37034;47.886;-3.904;2023-07-20T03:59:46;18.90;86.70
51007;DHT22;37034;47.886;-3.904;2023-07-20T04:02:12;18.90;86.70
51007;DHT22;37034;47.886;-3.904;2023-07-20T04:04:37;18.90;86.80
51007;DHT22;37034;47.886;-3.904;2023-07-20T04:07:03;18.90;86.90
51007;DHT22;37034;47.886;-3.904;2023-07-20T04:09:31;18.90;86.80
51007;DHT22;37034;47.886;-3.904;2023-07-20T04:11:57;18.80;87.00
51007;DHT22;37034;47.886;-3.904;2023-07-20T04:14:23;18.80;86.90
51007;DHT22;37034;47.886;-3.904;2023-07-20T04:16:49;18.80;87.00
51007;DHT22;37034;47.886;-3.904;2023-07-20T04:19:16;18.90;87.20
51007;DHT22;37034;47.886;-3.904;2023-07-20T04:21:43;18.90;87.10
51007;DHT22;37034;47.886;-3.904;2023-07-20T04:24:09;18.90;87.00
51007;DHT22;37034;47.886;-3.904;2023-07-20T04:26:35;18.90;87.00
51007;DHT22;37034;47.886;-3.904;2023-07-20T04:29:01;18.90;87.20
51007;DHT22;37034;47.886;-3.904;2023-07-20T04:31:26;18.90;87.10
51007;DHT22;37034;47.886;-3.904;2023-07-20T04:33:52;18.90;87.20
51007;DHT22;37034;47.886;-3.904;2023-07-20T04:36:18;18.90;87.00
51007;DHT22;37034;47.886;-3.904;2023-07-20T04:38:48;19.00;87.10
51007;DHT22;37034;47.886;-3.904;2023-07-20T04:41:13;18.90;87.10
51007;DHT22;37034;47.886;-3.904;2023-07-20T04:43:43;18.90;87.20
51007;DHT22;37034;47.886;-3.904;2023-07-20T04:46:10;18.90;87.20
51007;DHT22;37034;47.886;-3.904;2023-07-20T04:48:35;18.90;87.40
51007;DHT22;37034;47.886;-3.904;2023-07-20T04:51:02;18.90;87.60
51007;DHT22;37034;47.886;-3.904;2023-07-20T04:53:27;18.90;87.70
51007;DHT22;37034;47.886;-3.904;2023-07-20T04:55:53;18.90;87.80
51007;DHT22;37034;47.886;-3.904;2023-07-20T04:58:20;18.90;87.80
51007;DHT22;37034;47.886;-3.904;2023-07-20T05:00:48;18.90;87.90
51007;DHT22;37034;47.886;-3.904;2023-07-20T05:03:14;18.90;88.10
51007;DHT22;37034;47.886;-3.904;2023-07-20T05:05:40;18.90;88.10
51007;DHT22;37034;47.886;-3.904;2023-07-20T05:08:05;18.90;88.40
51007;DHT22;37034;47.886;-3.904;2023-07-20T05:10:31;18.90;88.60
51007;DHT22;37034;47.886;-3.904;2023-07-20T05:12:58;18.90;88.50
51007;DHT22;37034;47.886;-3.904;2023-07-20T05:15:23;19.00;89.30
51007;DHT22;37034;47.886;-3.904;2023-07-20T05:17:49;19.00;88.60
51007;DHT22;37034;47.886;-3.904;2023-07-20T05:20:15;19.00;88.80
51007;DHT22;37034;47.886;-3.904;2023-07-20T05:22:41;19.00;88.80
51007;DHT22;37034;47.886;-3.904;2023-07-20T05:25:08;19.00;88.90
51007;DHT22;37034;47.886;-3.904;2023-07-20T05:27:37;19.10;89.00
51007;DHT22;37034;47.886;-3.904;2023-07-20T05:30:04;19.10;89.10
51007;DHT22;37034;47.886;-3.904;2023-07-20T05:32:29;19.10;89.00
51007;DHT22;37034;47.886;-3.904;2023-07-20T05:34:55;19.10;89.20
51007;DHT22;37034;47.886;-3.904;2023-07-20T05:37:21;19.10;89.40
51007;DHT22;37034;47.886;-3.904;2023-07-20T05:39:47;19.20;89.50
51007;DHT22;37034;47.886;-3.904;2023-07-20T05:42:12;19.20;89.50
51007;DHT22;37034;47.886;-3.904;2023-07-20T05:44:39;19.20;89.60
51007;DHT22;37034;47.886;-3.904;2023-07-20T05:47:04;19.30;89.50
51007;DHT22;37034;47.886;-3.904;2023-07-20T05:49:30;19.40;90.00
51007;DHT22;37034;47.886;-3.904;2023-07-20T05:51:56;19.40;89.60
51007;DHT22;37034;47.886;-3.904;2023-07-20T05:54:24;19.50;89.70
51007;DHT22;37034;47.886;-3.904;2023-07-20T05:56:50;19.50;89.70
51007;DHT22;37034;47.886;-3.904;2023-07-20T05:59:16;19.60;89.70
51007;DHT22;37034;47.886;-3.904;2023-07-20T06:01:43;19.60;89.80
51007;DHT22;37034;47.886;-3.904;2023-07-20T06:04:08;19.70;89.80
51007;DHT22;37034;47.886;-3.904;2023-07-20T06:06:34;19.70;89.80
51007;DHT22;37034;47.886;-3.904;2023-07-20T06:09:00;19.80;89.90
51007;DHT22;37034;47.886;-3.904;2023-07-20T06:11:32;19.80;89.70
51007;DHT22;37034;47.886;-3.904;2023-07-20T06:13:57;19.80;89.90
51007;DHT22;37034;47.886;-3.904;2023-07-20T06:16:23;19.80;90.00
51007;DHT22;37034;47.886;-3.904;2023-07-20T06:18:49;19.90;90.00
51007;DHT22;37034;47.886;-3.904;2023-07-20T06:21:14;19.90;89.80
51007;DHT22;37034;47.886;-3.904;2023-07-20T06:23:41;19.90;90.00
51007;DHT22;37034;47.886;-3.904;2023-07-20T06:26:07;20.00;90.10
51007;DHT22;37034;47.886;-3.904;2023-07-20T06:28:33;20.00;90.20
51007;DHT22;37034;47.886;-3.904;2023-07-20T06:31:00;20.00;90.20
51007;DHT22;37034;47.886;-3.904;2023-07-20T06:33:26;20.10;90.20
51007;DHT22;37034;47.886;-3.904;2023-07-20T06:35:51;20.10;90.20
51007;DHT22;37034;47.886;-3.904;2023-07-20T06:38:18;20.10;90.20
51007;DHT22;37034;47.886;-3.904;2023-07-20T06:40:46;20.20;90.20
51007;DHT22;37034;47.886;-3.904;2023-07-20T06:43:12;20.20;90.20
51007;DHT22;37034;47.886;-3.904;2023-07-20T06:45:37;20.20;90.10
51007;DHT22;37034;47.886;-3.904;2023-07-20T06:48:03;20.20;90.20
51007;DHT22;37034;47.886;-3.904;2023-07-20T06:50:29;20.30;90.20
51007;DHT22;37034;47.886;-3.904;2023-07-20T06:52:55;20.30;90.00
51007;DHT22;37034;47.886;-3.904;2023-07-20T06:55:21;20.40;90.10
51007;DHT22;37034;47.886;-3.904;2023-07-20T06:57:46;20.10;89.80
51007;DHT22;37034;47.886;-3.904;2023-07-20T07:00:13;20.00;90.10
51007;DHT22;37034;47.886;-3.904;2023-07-20T07:02:38;20.10;90.40
51007;DHT22;37034;47.886;-3.904;2023-07-20T07:05:04;20.10;90.20
51007;DHT22;37034;47.886;-3.904;2023-07-20T07:07:30;20.20;90.30
51007;DHT22;37034;47.886;-3.904;2023-07-20T07:09:56;20.20;90.30
51007;DHT22;37034;47.886;-3.904;2023-07-20T07:12:22;20.20;90.20
51007;DHT22;37034;47.886;-3.904;2023-07-20T07:14:47;20.10;90.30
51007;DHT22;37034;47.886;-3.904;2023-07-20T07:17:13;20.20;90.40
51007;DHT22;37034;47.886;-3.904;2023-07-20T07:19:40;20.20;90.30
51007;DHT22;37034;47.886;-3.904;2023-07-20T07:22:06;20.30;90.30
51007;DHT22;37034;47.886;-3.904;2023-07-20T07:24:32;20.50;90.30
51007;DHT22;37034;47.886;-3.904;2023-07-20T07:27:01;20.60;90.50
51007;DHT22;37034;47.886;-3.904;2023-07-20T07:29:26;20.70;90.10
51007;DHT22;37034;47.886;-3.904;2023-07-20T07:31:52;20.90;90.20
51007;DHT22;37034;47.886;-3.904;2023-07-20T07:34:18;21.00;90.30
51007;DHT22;37034;47.886;-3.904;2023-07-20T07:36:44;21.10;89.00
51007;DHT22;37034;47.886;-3.904;2023-07-20T07:39:09;21.00;89.40
51007;DHT22;37034;47.886;-3.904;2023-07-20T07:41:35;20.90;88.80
51007;DHT22;37034;47.886;-3.904;2023-07-20T07:44:01;20.90;89.30
51007;DHT22;37034;47.886;-3.904;2023-07-20T07:46:27;20.90;88.90
51007;DHT22;37034;47.886;-3.904;2023-07-20T07:48:52;21.00;89.90
51007;DHT22;37034;47.886;-3.904;2023-07-20T07:51:18;21.20;89.80
51007;DHT22;37034;47.886;-3.904;2023-07-20T07:53:46;21.20;88.10
51007;DHT22;37034;47.886;-3.904;2023-07-20T07:56:11;21.20;88.90
51007;DHT22;37034;47.886;-3.904;2023-07-20T07:58:37;21.20;89.60
51007;DHT22;37034;47.886;-3.904;2023-07-20T08:01:03;21.50;89.70
51007;DHT22;37034;47.886;-3.904;2023-07-20T08:03:29;21.70;89.00
51007;DHT22;37034;47.886;-3.904;2023-07-20T08:05:55;21.90;88.60
51007;DHT22;37034;47.886;-3.904;2023-07-20T08:08:21;22.10;88.40
51007;DHT22;37034;47.886;-3.904;2023-07-20T08:10:48;22.00;87.40
51007;DHT22;37034;47.886;-3.904;2023-07-20T08:13:14;22.10;88.00
51007;DHT22;37034;47.886;-3.904;2023-07-20T08:15:41;22.30;87.50
51007;DHT22;37034;47.886;-3.904;2023-07-20T08:18:07;22.40;88.00
51007;DHT22;37034;47.886;-3.904;2023-07-20T08:20:33;22.50;86.60
51007;DHT22;37034;47.886;-3.904;2023-07-20T08:23:01;22.40;84.60
51007;DHT22;37034;47.886;-3.904;2023-07-20T08:25:26;22.50;86.00
51007;DHT22;37034;47.886;-3.904;2023-07-20T08:27:52;22.50;86.00
51007;DHT22;37034;47.886;-3.904;2023-07-20T08:30:21;22.60;85.80
51007;DHT22;37034;47.886;-3.904;2023-07-20T08:32:47;22.70;84.50
51007;DHT22;37034;47.886;-3.904;2023-07-20T08:35:12;22.70;85.50
51007;DHT22;37034;47.886;-3.904;2023-07-20T08:37:38;22.90;84.40
51007;DHT22;37034;47.886;-3.904;2023-07-20T08:40:04;22.90;84.00
51007;DHT22;37034;47.886;-3.904;2023-07-20T08:42:31;23.00;84.40
51007;DHT22;37034;47.886;-3.904;2023-07-20T08:44:57;23.10;84.00
51007;DHT22;37034;47.886;-3.904;2023-07-20T08:47:23;23.20;83.80
51007;DHT22;37034;47.886;-3.904;2023-07-20T08:49:50;23.30;81.90
51007;DHT22;37034;47.886;-3.904;2023-07-20T08:52:16;23.20;82.00
51007;DHT22;37034;47.886;-3.904;2023-07-20T08:54:42;23.10;82.00
51007;DHT22;37034;47.886;-3.904;2023-07-20T08:57:08;23.10;82.70
51007;DHT22;37034;47.886;-3.904;2023-07-20T08:59:38;23.20;82.60
51007;DHT22;37034;47.886;-3.904;2023-07-20T09:02:05;23.40;82.60
51007;DHT22;37034;47.886;-3.904;2023-07-20T09:04:32;23.40;79.00
51007;DHT22;37034;47.886;-3.904;2023-07-20T09:06:58;23.10;80.40
51007;DHT22;37034;47.886;-3.904;2023-07-20T09:09:24;23.20;81.70
51007;DHT22;37034;47.886;-3.904;2023-07-20T09:11:50;23.40;81.70
51007;DHT22;37034;47.886;-3.904;2023-07-20T09:14:16;23.50;78.00
51007;DHT22;37034;47.886;-3.904;2023-07-20T09:16:49;23.80;81.60
51007;DHT22;37034;47.886;-3.904;2023-07-20T09:19:16;24.00;79.90
51007;DHT22;37034;47.886;-3.904;2023-07-20T09:21:51;24.20;80.00
51007;DHT22;37034;47.886;-3.904;2023-07-20T09:24:19;24.10;78.40
51007;DHT22;37034;47.886;-3.904;2023-07-20T09:26:47;24.10;77.60
51007;DHT22;37034;47.886;-3.904;2023-07-20T09:29:19;24.10;78.90
51007;DHT22;37034;47.886;-3.904;2023-07-20T09:32:17;24.30;77.50
51007;DHT22;37034;47.886;-3.904;2023-07-20T09:34:43;24.40;77.10
51007;DHT22;37034;47.886;-3.904;2023-07-20T09:37:09;24.50;78.70
51007;DHT22;37034;47.886;-3.904;2023-07-20T09:39:43;24.40;77.40
51007;DHT22;37034;47.886;-3.904;2023-07-20T09:42:13;24.50;78.50
51007;DHT22;37034;47.886;-3.904;2023-07-20T09:44:39;24.60;77.40
51007;DHT22;37034;47.886;-3.904;2023-07-20T09:47:06;24.60;74.70
51007;DHT22;37034;47.886;-3.904;2023-07-20T09:49:32;24.60;75.90
51007;DHT22;37034;47.886;-3.904;2023-07-20T09:51:59;24.50;76.30
51007;DHT22;37034;47.886;-3.904;2023-07-20T09:54:27;24.50;76.70
51007;DHT22;37034;47.886;-3.904;2023-07-20T09:56:54;24.60;77.50
51007;DHT22;37034;47.886;-3.904;2023-07-20T09:59:19;24.80;79.00
51007;DHT22;37034;47.886;-3.904;2023-07-20T10:01:46;25.10;79.10
51007;DHT22;37034;47.886;-3.904;2023-07-20T10:04:14;25.30;79.30
51007;DHT22;37034;47.886;-3.904;2023-07-20T10:06:42;25.50;78.20
51007;DHT22;37034;47.886;-3.904;2023-07-20T10:09:10;25.60;77.80
51007;DHT22;37034;47.886;-3.904;2023-07-20T10:11:36;25.80;77.70
51007;DHT22;37034;47.886;-3.904;2023-07-20T10:14:04;25.80;77.70
51007;DHT22;37034;47.886;-3.904;2023-07-20T10:16:35;25.80;77.30
51007;DHT22;37034;47.886;-3.904;2023-07-20T10:19:07;25.80;76.50
51007;DHT22;37034;47.886;-3.904;2023-07-20T10:21:39;25.80;76.70
51007;DHT22;37034;47.886;-3.904;2023-07-20T10:24:06;25.70;76.30
51007;DHT22;37034;47.886;-3.904;2023-07-20T10:26:32;25.70;76.20
51007;DHT22;37034;47.886;-3.904;2023-07-20T10:29:00;25.60;75.50
51007;DHT22;37034;47.886;-3.904;2023-07-20T10:31:26;25.40;75.50
51007;DHT22;37034;47.886;-3.904;2023-07-20T10:33:56;25.40;76.00
51007;DHT22;37034;47.886;-3.904;2023-07-20T10:36:25;25.30;76.50
51007;DHT22;37034;47.886;-3.904;2023-07-20T10:38:54;25.40;76.80
51007;DHT22;37034;47.886;-3.904;2023-07-20T10:41:28;25.50;77.60
51007;DHT22;37034;47.886;-3.904;2023-07-20T10:44:00;25.70;76.30
51007;DHT22;37034;47.886;-3.904;2023-07-20T10:49:06;25.90;74.90
51007;DHT22;37034;47.886;-3.904;2023-07-20T10:51:43;25.90;76.60
51007;DHT22;37034;47.886;-3.904;2023-07-20T10:56:47;25.80;75.40
51007;DHT22;37034;47.886;-3.904;2023-07-20T11:01:55;25.50;76.10
51007;DHT22;37034;47.886;-3.904;2023-07-20T11:07:03;25.60;77.90
51007;DHT22;37034;47.886;-3.904;2023-07-20T11:09:34;25.80;77.00
51007;DHT22;37034;47.886;-3.904;2023-07-20T11:12:14;25.80;76.90
51007;DHT22;37034;47.886;-3.904;2023-07-20T11:14:43;25.90;76.60
51007;DHT22;37034;47.886;-3.904;2023-07-20T11:17:15;25.90;76.40
51007;DHT22;37034;47.886;-3.904;2023-07-20T11:19:48;26.00;76.30
51007;DHT22;37034;47.886;-3.904;2023-07-20T11:22:17;26.00;76.30
51007;DHT22;37034;47.886;-3.904;2023-07-20T11:24:43;26.00;75.90
51007;DHT22;37034;47.886;-3.904;2023-07-20T11:27:08;26.00;76.30
51007;DHT22;37034;47.886;-3.904;2023-07-20T11:29:35;26.10;76.10
51007;DHT22;37034;47.886;-3.904;2023-07-20T11:32:03;26.00;75.50
51007;DHT22;37034;47.886;-3.904;2023-07-20T11:34:30;26.00;75.20
51007;DHT22;37034;47.886;-3.904;2023-07-20T11:36:56;26.10;75.40
51007;DHT22;37034;47.886;-3.904;2023-07-20T11:39:23;26.10;75.10
51007;DHT22;37034;47.886;-3.904;2023-07-20T11:41:55;26.10;75.20
51007;DHT22;37034;47.886;-3.904;2023-07-20T11:44:22;26.10;75.60
51007;DHT22;37034;47.886;-3.904;2023-07-20T11:47:07;26.20;74.60
51007;DHT22;37034;47.886;-3.904;2023-07-20T11:49:40;26.10;74.40
51007;DHT22;37034;47.886;-3.904;2023-07-20T11:52:11;26.10;74.30
51007;DHT22;37034;47.886;-3.904;2023-07-20T11:54:40;26.10;75.10
51007;DHT22;37034;47.886;-3.904;2023-07-20T11:57:06;26.10;75.60
51007;DHT22;37034;47.886;-3.904;2023-07-20T11:59:33;26.20;75.60
51007;DHT22;37034;47.886;-3.904;2023-07-20T12:02:01;26.30;75.20
51007;DHT22;37034;47.886;-3.904;2023-07-20T12:04:28;26.40;75.10
51007;DHT22;37034;47.886;-3.904;2023-07-20T12:06:54;26.40;74.40
51007;DHT22;37034;47.886;-3.904;2023-07-20T12:09:20;26.50;74.40
51007;DHT22;37034;47.886;-3.904;2023-07-20T12:11:49;26.50;74.40
51007;DHT22;37034;47.886;-3.904;2023-07-20T12:14:15;26.60;75.20
51007;DHT22;37034;47.886;-3.904;2023-07-20T12:16:40;26.70;74.30
51007;DHT22;37034;47.886;-3.904;2023-07-20T12:19:08;26.80;74.40
51007;DHT22;37034;47.886;-3.904;2023-07-20T12:21:35;26.80;73.60
51007;DHT22;37034;47.886;-3.904;2023-07-20T12:24:04;26.70;73.50
51007;DHT22;37034;47.886;-3.904;2023-07-20T12:26:32;26.60;73.50
51007;DHT22;37034;47.886;-3.904;2023-07-20T12:28:58;26.60;73.80
51007;DHT22;37034;47.886;-3.904;2023-07-20T12:31:25;26.60;74.50
51007;DHT22;37034;47.886;-3.904;2023-07-20T12:33:51;26.70;74.60
51007;DHT22;37034;47.886;-3.904;2023-07-20T12:36:18;26.80;74.50
51007;DHT22;37034;47.886;-3.904;2023-07-20T12:38:44;26.90;73.50
51007;DHT22;37034;47.886;-3.904;2023-07-20T12:41:10;26.90;73.90
51007;DHT22;37034;47.886;-3.904;2023-07-20T12:43:38;27.00;73.90
51007;DHT22;37034;47.886;-3.904;2023-07-20T12:46:04;27.10;74.00
51007;DHT22;37034;47.886;-3.904;2023-07-20T12:48:30;27.10;73.90
51007;DHT22;37034;47.886;-3.904;2023-07-20T12:50:56;27.10;72.80
51007;DHT22;37034;47.886;-3.904;2023-07-20T12:53:21;27.00;73.00
51007;DHT22;37034;47.886;-3.904;2023-07-20T12:55:47;26.90;73.30
51007;DHT22;37034;47.886;-3.904;2023-07-20T12:58:13;26.90;72.90
51007;DHT22;37034;47.886;-3.904;2023-07-20T13:00:39;26.80;73.80
51007;DHT22;37034;47.886;-3.904;2023-07-20T13:03:06;26.80;74.20
51007;DHT22;37034;47.886;-3.904;2023-07-20T13:05:32;26.90;74.30
51007;DHT22;37034;47.886;-3.904;2023-07-20T13:07:58;27.00;73.80
51007;DHT22;37034;47.886;-3.904;2023-07-20T13:10:24;27.00;73.60
51007;DHT22;37034;47.886;-3.904;2023-07-20T13:12:50;27.10;73.60
51007;DHT22;37034;47.886;-3.904;2023-07-20T13:15:17;27.10;73.80
51007;DHT22;37034;47.886;-3.904;2023-07-20T13:17:44;27.20;73.40
51007;DHT22;37034;47.886;-3.904;2023-07-20T13:20:10;27.10;72.20
51007;DHT22;37034;47.886;-3.904;2023-07-20T13:22:40;26.90;72.60
51007;DHT22;37034;47.886;-3.904;2023-07-20T13:25:07;26.80;72.80
51007;DHT22;37034;47.886;-3.904;2023-07-20T13:27:36;26.70;73.80
51007;DHT22;37034;47.886;-3.904;2023-07-20T13:30:02;26.80;73.30
51007;DHT22;37034;47.886;-3.904;2023-07-20T13:32:32;26.90;73.30
51007;DHT22;37034;47.886;-3.904;2023-07-20T13:34:58;26.80;72.90
51007;DHT22;37034;47.886;-3.904;2023-07-20T13:37:23;26.80;72.50
51007;DHT22;37034;47.886;-3.904;2023-07-20T13:39:49;26.80;72.50
51007;DHT22;37034;47.886;-3.904;2023-07-20T13:42:15;26.80;72.40
51007;DHT22;37034;47.886;-3.904;2023-07-20T13:44:41;26.90;72.70
51007;DHT22;37034;47.886;-3.904;2023-07-20T13:47:06;26.90;72.60
51007;DHT22;37034;47.886;-3.904;2023-07-20T13:49:32;27.00;73.00
51007;DHT22;37034;47.886;-3.904;2023-07-20T13:51:58;27.10;72.80
51007;DHT22;37034;47.886;-3.904;2023-07-20T13:54:26;27.10;72.00
51007;DHT22;37034;47.886;-3.904;2023-07-20T13:56:52;27.00;72.30
51007;DHT22;37034;47.886;-3.904;2023-07-20T13:59:18;27.00;72.20
51007;DHT22;37034;47.886;-3.904;2023-07-20T14:01:43;27.00;71.90
51007;DHT22;37034;47.886;-3.904;2023-07-20T14:04:09;26.90;70.60
51007;DHT22;37034;47.886;-3.904;2023-07-20T14:06:35;26.60;69.10
51007;DHT22;37034;47.886;-3.904;2023-07-20T14:09:02;26.30;69.70
51007;DHT22;37034;47.886;-3.904;2023-07-20T14:11:28;26.20;70.50
51007;DHT22;37034;47.886;-3.904;2023-07-20T14:13:54;26.10;72.20
51007;DHT22;37034;47.886;-3.904;2023-07-20T14:16:21;26.20;72.70
51007;DHT22;37034;47.886;-3.904;2023-07-20T14:18:46;26.40;72.70
51007;DHT22;37034;47.886;-3.904;2023-07-20T14:21:17;26.50;72.50
51007;DHT22;37034;47.886;-3.904;2023-07-20T14:23:47;26.60;71.90
51007;DHT22;37034;47.886;-3.904;2023-07-20T14:26:13;26.40;71.70
51007;DHT22;37034;47.886;-3.904;2023-07-20T14:28:39;26.50;71.80
51007;DHT22;37034;47.886;-3.904;2023-07-20T14:31:06;26.40;71.20
51007;DHT22;37034;47.886;-3.904;2023-07-20T14:33:31;26.30;71.30
51007;DHT22;37034;47.886;-3.904;2023-07-20T14:35:57;26.30;71.50
51007;DHT22;37034;47.886;-3.904;2023-07-20T14:38:23;26.20;70.90
51007;DHT22;37034;47.886;-3.904;2023-07-20T14:40:49;26.10;71.30
51007;DHT22;37034;47.886;-3.904;2023-07-20T14:43:14;26.00;71.50
51007;DHT22;37034;47.886;-3.904;2023-07-20T14:45:41;25.90;71.80
51007;DHT22;37034;47.886;-3.904;2023-07-20T14:48:07;25.80;71.90
51007;DHT22;37034;47.886;-3.904;2023-07-20T14:50:33;25.80;72.10
51007;DHT22;37034;47.886;-3.904;2023-07-20T14:52:58;25.90;72.40
51007;DHT22;37034;47.886;-3.904;2023-07-20T14:55:25;25.90;72.50
51007;DHT22;37034;47.886;-3.904;2023-07-20T14:57:51;26.00;72.40
51007;DHT22;37034;47.886;-3.904;2023-07-20T15:00:16;26.20;72.80
51007;DHT22;37034;47.886;-3.904;2023-07-20T15:02:42;26.20;71.90
51007;DHT22;37034;47.886;-3.904;2023-07-20T15:05:09;26.10;70.90
51007;DHT22;37034;47.886;-3.904;2023-07-20T15:07:36;26.10;71.80
51007;DHT22;37034;47.886;-3.904;2023-07-20T15:10:05;25.90;71.30
51007;DHT22;37034;47.886;-3.904;2023-07-20T15:12:31;25.90;71.70
51007;DHT22;37034;47.886;-3.904;2023-07-20T15:15:11;26.00;71.60
51007;DHT22;37034;47.886;-3.904;2023-07-20T15:17:38;26.10;71.80
51007;DHT22;37034;47.886;-3.904;2023-07-20T15:20:05;26.20;72.10
51007;DHT22;37034;47.886;-3.904;2023-07-20T15:22:35;26.30;71.80
51007;DHT22;37034;47.886;-3.904;2023-07-20T15:25:02;26.40;71.40
51007;DHT22;37034;47.886;-3.904;2023-07-20T15:27:29;26.50;70.90
51007;DHT22;37034;47.886;-3.904;2023-07-20T15:29:55;26.40;70.20